createdAt,value
2023-05-12T00:01:58.511Z,100.00
2023-05-12T00:04:44.477Z,100.00
2023-05-12T00:07:30.930Z,100.00
2023-05-12T00:10:17.377Z,100.00
2023-05-12T00:13:04.972Z,100.00
2023-05-12T00:15:51.543Z,100.00
2023-05-12T00:18:37.403Z,100.00
2023-05-12T00:21:23.222Z,100.00
2023-05-12T00:24:09.611Z,100.00
2023-05-12T00:26:55.485Z,100.00
2023-05-12T00:29:42.644Z,100.00
2023-05-12T00:32:28.636Z,100.00
2023-05-12T00:35:15.958Z,100.00
2023-05-12T00:38:01.668Z,100.00
2023-05-12T00:40:47.559Z,100.00
2023-05-12T00:43:34.156Z,100.00
2023-05-12T00:46:21.915Z,100.00
2023-05-12T00:49:08.286Z,100.00
2023-05-12T00:51:55.283Z,100.00
2023-05-12T00:54:42.974Z,100.00
2023-05-12T00:57:29.851Z,100.00
2023-05-12T01:00:16.594Z,100.00
2023-05-12T01:03:06.424Z,100.00
2023-05-12T01:05:57.821Z,100.00
2023-05-12T01:08:44.248Z,100.00
2023-05-12T01:11:30.740Z,100.00
2023-05-12T01:14:16.616Z,100.00
2023-05-12T01:17:04.507Z,100.00
2023-05-12T01:19:54.871Z,100.00
2023-05-12T01:22:41.595Z,100.00
2023-05-12T01:25:32.329Z,100.00
2023-05-12T01:28:22.343Z,100.00
2023-05-12T01:31:10.220Z,100.00
2023-05-12T01:33:58.202Z,100.00
2023-05-12T01:36:44.667Z,100.00
2023-05-12T01:39:30.875Z,100.00
2023-05-12T01:42:17.323Z,100.00
2023-05-12T01:45:05.112Z,100.00
2023-05-12T01:47:51.523Z,100.00
2023-05-12T01:50:37.838Z,100.00
2023-05-12T01:53:27.704Z,100.00
2023-05-12T01:56:13.516Z,100.00
2023-05-12T01:58:59.743Z,100.00
2023-05-12T02:01:47.004Z,100.00
2023-05-12T02:04:38.267Z,100.00
2023-05-12T02:07:24.022Z,100.00
2023-05-12T02:10:10.628Z,100.00
2023-05-12T02:12:56.784Z,100.00
2023-05-12T02:15:43.338Z,100.00
2023-05-12T02:18:31.150Z,100.00
2023-05-12T02:21:17.569Z,100.00
2023-05-12T02:24:03.395Z,100.00
2023-05-12T02:26:50.744Z,100.00
2023-05-12T02:29:37.941Z,100.00
2023-05-12T02:32:28.003Z,100.00
2023-05-12T02:35:15.689Z,100.00
2023-05-12T02:38:01.772Z,100.00
2023-05-12T02:40:47.965Z,100.00
2023-05-12T02:43:34.503Z,100.00
2023-05-12T02:46:20.546Z,100.00
2023-05-12T02:49:06.820Z,100.00
2023-05-12T02:51:55.076Z,100.00
2023-05-12T02:54:41.206Z,100.00
2023-05-12T02:57:32.833Z,100.00
2023-05-12T03:00:19.424Z,100.00
2023-05-12T03:03:06.072Z,100.00
2023-05-12T03:05:53.365Z,100.00
2023-05-12T03:08:40.803Z,100.00
2023-05-12T03:11:27.354Z,100.00
2023-05-12T03:14:13.252Z,100.00
2023-05-12T03:17:00.065Z,100.00
2023-05-12T03:19:46.248Z,100.00
2023-05-12T03:22:32.453Z,100.00
2023-05-12T03:25:19.959Z,100.00
2023-05-12T03:28:06.296Z,100.00
2023-05-12T03:30:52.215Z,100.00
2023-05-12T03:33:38.068Z,100.00
2023-05-12T03:36:24.150Z,100.00
2023-05-12T03:39:10.523Z,100.00
2023-05-12T03:41:57.657Z,100.00
2023-05-12T03:44:43.832Z,100.00
2023-05-12T03:47:30.335Z,100.00
2023-05-12T03:50:16.683Z,100.00
2023-05-12T03:53:03.455Z,100.00
2023-05-12T03:55:49.313Z,100.00
2023-05-12T03:58:36.493Z,100.00
2023-05-12T04:01:22.598Z,100.00
2023-05-12T04:04:08.696Z,100.00
2023-05-12T04:06:56.208Z,100.00
2023-05-12T04:09:43.894Z,100.00
2023-05-12T04:12:29.793Z,100.00
2023-05-12T04:15:17.575Z,100.00
2023-05-12T04:18:03.310Z,100.00
2023-05-12T04:20:49.204Z,100.00
2023-05-12T04:23:35.083Z,100.00
2023-05-12T04:26:21.993Z,100.00
2023-05-12T04:29:08.361Z,100.00
2023-05-12T04:31:57.164Z,100.00
2023-05-12T04:34:43.556Z,100.00
2023-05-12T04:37:29.943Z,100.00
2023-05-12T04:40:16.652Z,100.00
2023-05-12T04:43:03.040Z,100.00
2023-05-12T04:45:51.432Z,100.00
2023-05-12T04:48:41.859Z,100.00
2023-05-12T04:51:27.968Z,100.00
2023-05-12T04:54:13.846Z,100.00
2023-05-12T04:57:00.391Z,100.00
2023-05-12T04:59:46.187Z,100.00
2023-05-12T05:02:33.075Z,100.00
2023-05-12T05:05:21.235Z,100.00
2023-05-12T05:08:07.679Z,100.00
2023-05-12T05:10:54.304Z,100.00
2023-05-12T05:13:40.799Z,100.00
2023-05-12T05:16:28.221Z,100.00
2023-05-12T05:19:24.777Z,100.00
2023-05-12T05:22:22.968Z,100.00
2023-05-12T05:25:10.206Z,100.00
2023-05-12T05:27:56.608Z,100.00
2023-05-12T05:30:42.419Z,100.00
2023-05-12T05:33:29.282Z,100.00
2023-05-12T05:36:16.373Z,100.00
2023-05-12T05:39:04.746Z,100.00
2023-05-12T05:41:50.588Z,100.00
2023-05-12T05:44:36.531Z,100.00
2023-05-12T05:47:24.602Z,100.00
2023-05-12T05:50:11.395Z,100.00
2023-05-12T05:53:00.250Z,100.00
2023-05-12T05:55:48.719Z,100.00
2023-05-12T05:58:35.310Z,100.00
2023-05-12T06:01:23.008Z,100.00
2023-05-12T06:04:08.966Z,100.00
2023-05-12T06:06:55.261Z,100.00
2023-05-12T06:09:41.238Z,100.00
2023-05-12T06:12:28.274Z,100.00
2023-05-12T06:15:14.404Z,100.00
2023-05-12T06:18:00.589Z,100.00
2023-05-12T06:20:46.315Z,100.00
2023-05-12T06:23:32.415Z,100.00
2023-05-12T06:26:18.599Z,100.00
2023-05-12T06:29:07.538Z,100.00
2023-05-12T06:31:53.713Z,100.00
2023-05-12T06:34:39.809Z,100.00
2023-05-12T06:37:25.980Z,100.00
2023-05-12T06:40:12.394Z,100.00
2023-05-12T06:42:58.685Z,100.00
2023-05-12T06:45:47.364Z,100.00
2023-05-12T06:48:33.982Z,100.00
2023-05-12T06:51:20.276Z,100.00
2023-05-12T06:54:06.856Z,100.00
2023-05-12T06:56:53.096Z,100.00
2023-05-12T06:59:39.135Z,100.00
2023-05-12T07:02:26.454Z,100.00
2023-05-12T07:05:12.921Z,100.00
2023-05-12T07:07:59.347Z,100.00
2023-05-12T07:10:45.248Z,100.00
2023-05-12T07:13:31.299Z,100.00
2023-05-12T07:16:18.150Z,100.00
2023-05-12T07:19:08.780Z,100.00
2023-05-12T07:21:54.876Z,100.00
2023-05-12T07:24:41.575Z,100.00
2023-05-12T07:27:27.691Z,100.00
2023-05-12T07:30:14.318Z,100.00
2023-05-12T07:33:02.084Z,100.00
2023-05-12T07:35:49.568Z,100.00
2023-05-12T07:38:35.650Z,100.00
2023-05-12T07:41:21.748Z,100.00
2023-05-12T07:44:07.706Z,100.00
2023-05-12T07:46:54.255Z,100.00
2023-05-12T07:49:40.495Z,100.00
2023-05-12T07:52:27.921Z,100.00
2023-05-12T07:55:14.061Z,100.00
2023-05-12T07:57:59.975Z,100.00
2023-05-12T08:00:46.071Z,100.00
2023-05-12T08:03:32.053Z,100.00
2023-05-12T08:06:18.670Z,100.00
2023-05-12T08:09:06.396Z,100.00
2023-05-12T08:11:52.832Z,100.00
2023-05-12T08:14:38.992Z,100.00
2023-05-12T08:17:25.971Z,100.00
2023-05-12T08:20:13.902Z,100.00
2023-05-12T08:23:00.181Z,100.00
2023-05-12T08:25:48.414Z,100.00
2023-05-12T08:28:34.601Z,100.00
2023-05-12T08:31:20.882Z,100.00
2023-05-12T08:34:10.897Z,100.00
2023-05-12T08:36:57.626Z,100.00
2023-05-12T08:39:43.821Z,100.00
2023-05-12T08:42:38.135Z,100.00
2023-05-12T08:45:24.896Z,100.00
2023-05-12T08:48:11.801Z,100.00
2023-05-12T08:50:58.865Z,100.00
2023-05-12T08:53:45.845Z,100.00
2023-05-12T08:59:21.781Z,100.00
2023-05-12T09:02:09.049Z,100.00
2023-05-12T09:04:55.520Z,100.00
2023-05-12T09:07:44.662Z,100.00
2023-05-12T09:10:35.308Z,100.00
2023-05-12T09:13:30.876Z,100.00
2023-05-12T09:16:19.976Z,100.00
2023-05-12T09:19:07.429Z,100.00
2023-05-12T09:21:53.813Z,100.00
2023-05-12T09:24:40.977Z,100.00
2023-05-12T09:27:27.742Z,100.00
2023-05-12T09:30:14.500Z,100.00
2023-05-12T09:33:09.158Z,100.00
2023-05-12T09:35:55.041Z,100.00
2023-05-12T09:38:41.038Z,100.00
2023-05-12T09:41:27.269Z,100.00
2023-05-12T09:44:16.299Z,100.00
2023-05-12T09:47:06.985Z,100.00
2023-05-12T09:49:55.079Z,100.00
2023-05-12T09:52:41.605Z,100.00
2023-05-12T09:55:27.874Z,100.00
2023-05-12T09:58:16.286Z,100.00
2023-05-12T10:03:54.484Z,100.00
2023-05-12T10:06:43.236Z,100.00
2023-05-12T10:09:33.890Z,100.00
2023-05-12T10:12:20.080Z,100.00
2023-05-12T10:15:07.630Z,100.00
2023-05-12T10:17:55.261Z,100.00
2023-05-12T10:20:41.926Z,100.00
2023-05-12T10:23:29.180Z,100.00
2023-05-12T10:26:15.338Z,100.00
2023-05-12T10:29:01.518Z,100.00
2023-05-12T10:31:47.861Z,100.00
2023-05-12T10:34:35.020Z,100.00
2023-05-12T10:37:23.591Z,98.36
2023-05-12T10:40:11.681Z,100.00
2023-05-12T10:42:59.941Z,100.00
2023-05-12T10:45:46.231Z,100.00
2023-05-12T10:48:32.545Z,100.00
2023-05-12T10:51:21.965Z,100.00
2023-05-12T10:54:09.191Z,100.00
2023-05-12T10:57:00.451Z,100.00
2023-05-12T10:59:50.688Z,100.00
2023-05-12T11:02:38.353Z,85.46
2023-05-12T11:05:34.735Z,81.88
2023-05-12T11:08:21.662Z,94.99
2023-05-12T11:11:08.809Z,93.00
2023-05-12T11:13:56.532Z,84.60
2023-05-12T11:16:44.203Z,92.03
2023-05-12T11:19:30.662Z,83.28
2023-05-12T11:22:18.455Z,80.04
2023-05-12T11:25:11.341Z,91.83
2023-05-12T11:27:58.217Z,88.43
2023-05-12T11:30:54.001Z,86.74
2023-05-12T11:33:40.863Z,74.94
2023-05-12T11:36:26.703Z,73.17
2023-05-12T11:39:17.489Z,71.00
2023-05-12T11:42:12.864Z,77.98
2023-05-12T11:45:00.251Z,82.49
2023-05-12T11:47:47.771Z,73.22
2023-05-12T11:50:34.056Z,77.66
2023-05-12T11:53:20.130Z,74.19
2023-05-12T11:56:06.474Z,63.00
2023-05-12T11:58:53.998Z,79.91
2023-05-12T12:01:46.187Z,79.77
2023-05-12T12:04:40.605Z,78.08
2023-05-12T12:07:31.057Z,71.15
2023-05-12T12:10:18.951Z,68.64
2023-05-12T12:13:05.214Z,76.05
2023-05-12T12:15:51.882Z,68.53
2023-05-12T12:18:37.848Z,73.78
2023-05-12T12:21:26.169Z,65.33
2023-05-12T12:24:12.656Z,64.90
2023-05-12T12:26:58.731Z,65.18
2023-05-12T12:29:44.564Z,62.69
2023-05-12T12:32:31.187Z,75.43
2023-05-12T12:35:17.187Z,71.88
2023-05-12T12:38:04.615Z,73.40
2023-05-12T12:40:51.406Z,74.23
2023-05-12T12:43:37.731Z,79.51
2023-05-12T12:46:23.839Z,88.85
2023-05-12T12:49:10.246Z,83.02
2023-05-12T12:51:56.681Z,79.60
2023-05-12T12:54:43.850Z,84.64
2023-05-12T12:57:29.746Z,79.14
2023-05-12T13:00:17.277Z,95.88
2023-05-12T13:03:03.438Z,96.16
2023-05-12T13:05:49.673Z,88.99
2023-05-12T13:08:35.685Z,93.89
2023-05-12T13:11:22.890Z,87.66
2023-05-12T13:14:08.923Z,92.15
2023-05-12T13:16:54.760Z,85.14
2023-05-12T13:19:40.587Z,85.71
2023-05-12T13:22:27.440Z,89.82
2023-05-12T13:25:13.230Z,81.91
2023-05-12T13:28:00.407Z,90.10
2023-05-12T13:30:46.549Z,87.53
2023-05-12T13:33:32.594Z,92.05
2023-05-12T13:36:18.513Z,99.52
2023-05-12T13:39:04.534Z,90.11
2023-05-12T13:41:50.754Z,96.62
2023-05-12T13:44:38.578Z,74.30
2023-05-12T13:47:24.541Z,82.09
2023-05-12T13:50:10.700Z,70.45
2023-05-12T13:52:56.914Z,69.31
2023-05-12T13:55:44.460Z,69.63
2023-05-12T13:58:30.521Z,77.73
2023-05-12T14:01:17.783Z,74.68
2023-05-12T14:04:03.888Z,82.21
2023-05-12T14:06:50.265Z,77.71
2023-05-12T14:09:36.576Z,79.29
2023-05-12T14:12:22.375Z,73.25
2023-05-12T14:15:29.151Z,69.31
2023-05-12T14:18:17.696Z,70.52
2023-05-12T14:21:05.642Z,75.81
2023-05-12T14:23:52.003Z,63.69
2023-05-12T14:26:37.909Z,68.22
2023-05-12T14:29:23.741Z,74.70
2023-05-12T14:32:09.701Z,69.72
2023-05-12T14:34:57.566Z,70.98
2023-05-12T14:37:43.817Z,72.25
2023-05-12T14:40:29.752Z,73.00
2023-05-12T14:43:15.611Z,73.27
2023-05-12T14:46:02.205Z,73.80
2023-05-12T14:48:48.780Z,66.12
2023-05-12T14:51:36.476Z,71.80
2023-05-12T14:54:25.561Z,71.94
2023-05-12T14:57:13.412Z,79.99
2023-05-12T14:59:59.308Z,67.94
2023-05-12T15:02:45.995Z,75.97
2023-05-12T15:05:52.920Z,68.93
2023-05-12T15:08:40.308Z,73.20
2023-05-12T15:11:26.794Z,70.88
2023-05-12T15:14:12.934Z,69.07
2023-05-12T15:16:59.422Z,81.44
2023-05-12T15:19:46.218Z,66.24
2023-05-12T15:22:32.386Z,67.82
2023-05-12T15:25:19.862Z,70.77
2023-05-12T15:28:06.004Z,71.08
2023-05-12T15:30:55.924Z,76.48
2023-05-12T15:33:42.308Z,74.56
2023-05-12T15:36:28.151Z,68.31
2023-05-12T15:39:14.042Z,68.71
2023-05-12T15:42:01.304Z,61.66
2023-05-12T15:44:48.017Z,71.20
2023-05-12T15:47:36.212Z,65.16
2023-05-12T15:50:22.994Z,72.24
2023-05-12T15:53:09.349Z,70.22
2023-05-12T15:56:00.324Z,74.68
2023-05-12T15:58:47.731Z,70.50
2023-05-12T16:01:33.778Z,79.08
2023-05-12T16:04:19.895Z,66.88
2023-05-12T16:07:06.293Z,72.59
2023-05-12T16:09:52.589Z,75.76
2023-05-12T16:12:38.710Z,72.39
2023-05-12T16:15:25.954Z,66.60
2023-05-12T16:18:12.043Z,80.61
2023-05-12T16:20:58.683Z,75.89
2023-05-12T16:23:44.716Z,84.14
2023-05-12T16:26:30.970Z,73.14
2023-05-12T16:29:17.334Z,70.01
2023-05-12T16:32:05.480Z,74.61
2023-05-12T16:34:51.731Z,75.11
2023-05-12T16:37:37.952Z,81.63
2023-05-12T16:40:24.176Z,76.07
2023-05-12T16:43:10.327Z,69.95
2023-05-12T16:46:00.985Z,67.93
2023-05-12T16:48:48.547Z,75.16
2023-05-12T16:51:35.536Z,75.89
2023-05-12T16:54:21.982Z,69.66
2023-05-12T16:57:08.093Z,70.24
2023-05-12T16:59:54.213Z,71.58
2023-05-12T17:02:40.063Z,75.10
2023-05-12T17:05:27.908Z,83.19
2023-05-12T17:08:14.064Z,90.70
2023-05-12T17:11:00.300Z,78.97
2023-05-12T17:13:46.582Z,82.16
2023-05-12T17:16:32.846Z,74.73
2023-05-12T17:19:19.218Z,74.88
2023-05-12T17:22:07.088Z,76.89
2023-05-12T17:24:52.883Z,78.02
2023-05-12T17:27:38.718Z,83.52
2023-05-12T17:30:25.002Z,82.74
2023-05-12T17:33:10.946Z,78.85
2023-05-12T17:36:11.600Z,80.38
2023-05-12T17:38:59.898Z,86.74
2023-05-12T17:41:45.889Z,87.01
2023-05-12T17:44:31.706Z,78.60
2023-05-12T17:47:17.826Z,90.15
2023-05-12T17:50:04.163Z,94.57
2023-05-12T17:52:50.424Z,85.25
2023-05-12T17:55:38.318Z,85.69
2023-05-12T17:58:24.430Z,98.52
2023-05-12T18:01:10.241Z,89.67
2023-05-12T18:03:56.146Z,87.30
2023-05-12T18:06:42.141Z,90.62
2023-05-12T18:09:29.187Z,100.00
2023-05-12T18:12:17.901Z,95.23
2023-05-12T18:15:04.421Z,87.24
2023-05-12T18:17:50.498Z,99.93
2023-05-12T18:20:36.484Z,100.00
2023-05-12T18:23:22.456Z,100.00
2023-05-12T18:26:08.460Z,100.00
2023-05-12T18:28:55.885Z,100.00
2023-05-12T18:31:43.990Z,100.00
2023-05-12T18:34:30.691Z,95.01
2023-05-12T18:37:17.719Z,100.00
2023-05-12T18:40:04.837Z,100.00
2023-05-12T18:42:51.750Z,100.00
2023-05-12T18:45:39.534Z,100.00
2023-05-12T18:48:25.522Z,100.00
2023-05-12T18:51:11.668Z,100.00
2023-05-12T18:53:58.008Z,100.00
2023-05-12T18:56:44.204Z,100.00
2023-05-12T18:59:30.113Z,100.00
2023-05-12T19:02:17.641Z,100.00
2023-05-12T19:05:03.610Z,100.00
2023-05-12T19:07:49.714Z,100.00
2023-05-12T19:10:37.887Z,100.00
2023-05-12T19:13:25.501Z,100.00
2023-05-12T19:16:11.865Z,100.00
2023-05-12T19:18:59.582Z,100.00
2023-05-12T19:21:45.638Z,100.00
2023-05-12T19:24:31.487Z,100.00
2023-05-12T19:27:17.422Z,100.00
2023-05-12T19:30:05.037Z,100.00
2023-05-12T19:32:51.323Z,100.00
2023-05-12T19:35:39.144Z,100.00
2023-05-12T19:38:25.309Z,100.00
2023-05-12T19:41:11.508Z,100.00
2023-05-12T19:43:57.775Z,100.00
2023-05-12T19:46:44.501Z,100.00
2023-05-12T19:49:30.682Z,100.00
2023-05-12T19:52:18.395Z,100.00
2023-05-12T19:55:05.002Z,100.00
2023-05-12T19:57:51.733Z,100.00
2023-05-12T20:00:39.313Z,100.00
2023-05-12T20:03:26.005Z,100.00
2023-05-12T20:06:12.261Z,100.00
2023-05-12T20:08:59.434Z,100.00
2023-05-12T20:11:45.559Z,100.00
2023-05-12T20:14:31.495Z,100.00
2023-05-12T20:17:17.594Z,100.00
2023-05-12T20:20:04.219Z,100.00
2023-05-12T20:22:50.030Z,100.00
2023-05-12T20:25:37.456Z,100.00
2023-05-12T20:28:23.950Z,100.00
2023-05-12T20:31:10.516Z,100.00
2023-05-12T20:33:57.150Z,100.00
2023-05-12T20:36:43.962Z,100.00
2023-05-12T20:39:29.857Z,100.00
2023-05-12T20:42:17.222Z,100.00
2023-05-12T20:45:03.154Z,100.00
2023-05-12T20:47:49.363Z,100.00
2023-05-12T20:50:35.332Z,100.00
2023-05-12T20:53:21.430Z,100.00
2023-05-12T20:56:08.682Z,100.00
2023-05-12T20:58:57.244Z,100.00
2023-05-12T21:01:43.053Z,100.00
2023-05-12T21:04:28.965Z,100.00
2023-05-12T21:07:14.916Z,100.00
2023-05-12T21:10:00.879Z,100.00
2023-05-12T21:12:47.165Z,100.00
2023-05-12T21:15:34.427Z,100.00
2023-05-12T21:18:20.544Z,100.00
2023-05-12T21:21:06.450Z,100.00
2023-05-12T21:23:52.439Z,100.00
2023-05-12T21:26:38.977Z,100.00
2023-05-12T21:29:25.249Z,100.00
2023-05-12T21:32:12.866Z,100.00
2023-05-12T21:34:59.139Z,100.00
2023-05-12T21:37:46.236Z,100.00
2023-05-12T21:40:32.365Z,100.00
2023-05-12T21:43:18.251Z,100.00
2023-05-12T21:46:04.729Z,100.00
2023-05-12T21:48:52.981Z,100.00
2023-05-12T21:51:39.170Z,100.00
2023-05-12T21:54:25.423Z,100.00
2023-05-12T21:57:11.484Z,100.00
2023-05-12T21:59:58.791Z,100.00
2023-05-12T22:02:44.816Z,100.00
2023-05-12T22:05:32.225Z,100.00
2023-05-12T22:08:18.476Z,100.00
2023-05-12T22:11:04.583Z,100.00
2023-05-12T22:13:50.705Z,100.00
2023-05-12T22:16:41.836Z,100.00
2023-05-12T22:19:28.815Z,100.00
2023-05-12T22:22:16.407Z,100.00
2023-05-12T22:25:03.612Z,100.00
2023-05-12T22:27:49.912Z,100.00
2023-05-12T22:30:36.128Z,100.00
2023-05-12T22:33:22.031Z,100.00
2023-05-12T22:36:09.004Z,100.00
2023-05-12T22:38:56.301Z,100.00
2023-05-12T22:41:42.380Z,100.00
2023-05-12T22:44:28.626Z,100.00
2023-05-12T22:47:14.743Z,100.00
2023-05-12T22:50:01.258Z,100.00
2023-05-12T22:52:47.593Z,100.00
2023-05-12T22:55:34.899Z,100.00
2023-05-12T22:58:21.072Z,100.00
2023-05-12T23:01:07.372Z,100.00
2023-05-12T23:03:53.867Z,100.00
2023-05-12T23:06:39.961Z,100.00
2023-05-12T23:09:26.047Z,100.00
2023-05-12T23:12:13.638Z,100.00
2023-05-12T23:14:59.903Z,100.00
2023-05-12T23:17:46.131Z,100.00
2023-05-12T23:20:32.010Z,100.00
2023-05-12T23:23:18.095Z,100.00
2023-05-12T23:26:04.188Z,100.00
2023-05-12T23:28:51.429Z,100.00
2023-05-12T23:31:37.555Z,100.00
2023-05-12T23:34:23.745Z,100.00
2023-05-12T23:37:09.561Z,100.00
2023-05-12T23:39:55.782Z,100.00
2023-05-12T23:42:41.809Z,100.00
2023-05-12T23:45:28.876Z,100.00
2023-05-12T23:48:14.877Z,100.00
2023-05-12T23:51:00.786Z,100.00
2023-05-12T23:53:46.672Z,100.00
2023-05-12T23:56:32.629Z,100.00
2023-05-12T23:59:18.430Z,100.00
